Eureka, Nunavut

12:48 PM CDT on October 25, 2014 (GMT -0500)
Eureka | Change Station
CLOSE
Current Station
Airport
Location: Eureka,
Elevation: 33 ft
Nearby Weather Stations

Elev 33 ft 79.98 °N, 85.93 °W | Updated 48 minutes ago

Light Snow
Light Snow
-15 °F
Feels Like -15 °F
N
0
Wind Variable Wind from North

Today
High -- | Low -- °F
--% Chance of Precip.
Yesterday
High -- | Low -- °F
Precip. -- in
6:00 PM 6:00 PM
Waxing Crescent, 4% visible
Pressure 30.21 in
Visibility 15.0 miles
Clouds Mostly Cloudy 14000 ft
Dew Point -24 °F
Humidity 64%
Rainfall 0.00 in
Snow Depth Not available.
UV 0 out of 12
Pollen Not available.
Air Quality Not available.
Flu Activity Not available.
METAR CWEU 251700Z 00000KT 15SM -SN BKN140 M26/M31 A3020 RMK AC1 SLP230

More Conditions Fewer Conditions

Pressure 30.21 in
Visibility 15.0 miles
Clouds Mostly Cloudy 14000 ft
Dew Point -24 °F
Humidity 64%
Rainfall 0.00 in
Snow Depth Not available.
UV 0 out of 12
Pollen Not available.
Air Quality Not available.
Flu Activity Not available.
METAR CWEU 251700Z 00000KT 15SM -SN BKN140 M26/M31 A3020 RMK AC1 SLP230

More Conditions Fewer Conditions

10-Day Weather Forecast

Almanac

Astronomy

Oct. 25, 2014 Rise Set
Actual Time Sun does not rise Sun does not rise
Civil Twilight 8:57 AM CDT 3:54 PM CDT
Nautical Twilight 6:27 AM CDT 6:24 PM CDT
Astronomical Twilight 4:00 AM CDT 8:48 PM CDT
Moon No Moon Rise No Moon Set
Length of Visible Light 6h 57m
Length of Day
0h 00m
Tomorrow will be 0m 0s shorter.
Waxing Crescent, 4% of the Moon is Illuminated
Today
Waxing Crescent
Oct 30
First Quarter
Nov 6
Full
Nov 14
Last Quarter
Nov 22
New

Today's Extremes

Country Highs Country Lows

Community

WunderPhotos

Upload Photos

1,764,919 photos uploaded!

Nearby

Snow Depth

Not available.

Earthquake Activity

City Distance Mag. Time & Date
No recent earthquake activity has been reported nearby.
Minimum magnitude displayed is 2.5.

Coastal Water Temperatures

Place Temperature
No Stations Reporting

Nearby Weather Stations